Time;durP1;ratioP1;P1;durP2;ratioP2;P2;SDS_P1;SDS_P2;PMS_P1;PMS_P2;Temp;Humidity;BMP_temperature;BMP_pressure;BME280_temperature;BME280_humidity;BME280_pressure;Samples;Min_cycle;Max_cycle;Signal;HPM_P1;HPM_P2
2021/05/13 00:00:33;;;;;;;8.48;4.07;;;10.60;99.90;;;;;;5094447;28;20107;-66
2021/05/13 00:02:58;;;;;;;7.82;4.68;;;10.50;99.90;;;;;;5094041;28;20111;-66
2021/05/13 00:05:24;;;;;;;6.82;4.45;;;10.50;99.90;;;;;;5094429;28;20119;-66
2021/05/13 00:07:50;;;;;;;9.23;4.57;;;10.10;99.90;;;;;;5094267;28;20036;-66
2021/05/13 00:10:23;;;;;;;6.60;4.53;;;10.10;99.90;;;;;;5094348;28;20039;-66
2021/05/13 00:12:54;;;;;;;6.35;3.72;;;10.10;99.90;;;;;;5092824;28;20036;-66
2021/05/13 00:15:24;;;;;;;;;;;10.20;99.90;;;;;;5094672;28;20028;-66
2021/05/13 00:17:52;;;;;;;9.70;3.70;;;10.20;99.90;;;;;;5093846;28;20268;-66
2021/05/13 00:20:33;;;;;;;4.95;3.15;;;10.20;99.90;;;;;;5094244;28;20032;-66
2021/05/13 00:22:59;;;;;;;7.18;3.47;;;10.30;99.90;;;;;;5092416;28;20040;-66
2021/05/13 00:25:26;;;;;;;9.57;4.20;;;10.30;99.90;;;;;;5093718;28;20404;-66
2021/05/13 00:27:52;;;;;;;6.50;4.20;;;10.40;99.90;;;;;;5093490;28;20475;-67
2021/05/13 00:30:19;;;;;;;8.57;4.00;;;10.50;99.90;;;;;;5093930;28;20074;-66
2021/05/13 00:32:46;;;;;;;6.35;3.80;;;10.50;99.90;;;;;;5093685;28;20434;-66
2021/05/13 00:35:15;;;;;;;7.43;3.60;;;10.60;99.90;;;;;;5092203;28;20419;-66
2021/05/13 00:37:42;;;;;;;8.23;3.90;;;10.50;99.90;;;;;;5093847;28;20024;-66
2021/05/13 00:40:11;;;;;;;6.72;3.83;;;10.50;99.90;;;;;;5093642;28;20028;-66
2021/05/13 00:42:37;;;;;;;7.60;3.60;;;10.40;99.90;;;;;;5093333;28;20388;-66
2021/05/13 00:45:09;;;;;;;5.75;3.10;;;10.40;99.90;;;;;;5093299;28;20090;-66
2021/05/13 00:47:37;;;;;;;5.10;3.03;;;10.40;99.90;;;;;;5093586;28;20028;-66
2021/05/13 00:50:05;;;;;;;6.13;3.08;;;10.40;99.90;;;;;;5092988;28;20039;-66
2021/05/13 00:52:33;;;;;;;9.57;3.35;;;10.40;99.90;;;;;;5093134;28;20044;-66
2021/05/13 00:55:00;;;;;;;4.75;3.10;;;10.50;99.90;;;;;;5093195;28;20066;-66
2021/05/13 00:57:26;;;;;;;6.93;3.25;;;10.50;99.90;;;;;;5093363;28;20071;-66
2021/05/13 00:59:58;;;;;;;5.57;3.72;;;10.60;99.90;;;;;;5093346;28;20093;-66
2021/05/13 01:02:24;;;;;;;7.65;4.13;;;10.50;99.90;;;;;;5093012;28;20028;-66
2021/05/13 01:04:49;;;;;;;5.20;3.15;;;10.40;99.90;;;;;;5093278;28;20066;-66
2021/05/13 01:07:15;;;;;;;7.55;4.13;;;10.40;99.90;;;;;;5093028;28;20047;-66
2021/05/13 01:09:41;;;;;;;6.20;3.88;;;10.30;99.90;;;;;;5093152;28;20537;-66
2021/05/13 01:12:17;;;;;;;8.68;4.05;;;10.20;99.90;;;;;;5092996;28;20480;-66
2021/05/13 01:14:48;;;;;;;6.35;3.22;;;10.20;99.90;;;;;;5092871;28;20358;-66
2021/05/13 01:17:36;;;;;;;9.82;4.53;;;10.20;99.90;;;;;;5092907;28;20024;-64
2021/05/13 01:20:03;;;;;;;8.20;4.03;;;10.20;99.90;;;;;;5092891;28;20051;-66
2021/05/13 01:22:29;;;;;;;6.55;3.92;;;10.20;99.90;;;;;;5091275;28;20170;-66
2021/05/13 01:24:56;;;;;;;6.45;4.18;;;10.20;99.90;;;;;;5092822;28;20070;-66
2021/05/13 01:27:22;;;;;;;6.65;4.35;;;10.10;99.90;;;;;;5092803;28;20055;-66
2021/05/13 01:29:49;;;;;;;10.60;5.05;;;10.10;99.90;;;;;;5092514;28;20472;-66
2021/05/13 01:32:18;;;;;;;8.45;5.15;;;10.20;99.90;;;;;;5092325;28;20462;-66
2021/05/13 01:34:44;;;;;;;7.22;4.30;;;10.20;99.90;;;;;;5092495;28;20032;-66
2021/05/13 01:37:10;;;;;;;7.82;4.70;;;10.20;99.90;;;;;;5092608;28;20032;-66
2021/05/13 01:39:36;;;;;;;6.35;4.03;;;10.30;99.90;;;;;;5092747;28;20368;-66
2021/05/13 01:42:02;;;;;;;6.38;4.05;;;10.20;99.90;;;;;;5092616;28;20031;-66
2021/05/13 01:44:28;;;;;;;5.68;4.07;;;10.20;99.90;;;;;;5092533;28;20039;-66
2021/05/13 01:46:54;;;;;;;9.68;5.30;;;10.20;99.90;;;;;;5092504;28;20028;-66
2021/05/13 01:49:22;;;;;;;8.05;4.90;;;10.20;99.90;;;;;;5092470;28;20526;-66
2021/05/13 01:51:49;;;;;;;8.02;5.30;;;10.20;99.90;;;;;;5092147;28;20040;-66
2021/05/13 01:54:16;;;;;;;8.77;4.95;;;10.10;99.90;;;;;;5092173;28;20032;-66
2021/05/13 01:56:42;;;;;;;7.72;5.30;;;10.10;99.90;;;;;;5092295;28;20543;-67
2021/05/13 01:59:08;;;;;;;6.38;4.72;;;10.10;99.90;;;;;;5092061;28;20028;-66
2021/05/13 02:01:34;;;;;;;6.60;4.65;;;10.10;99.90;;;;;;5094535;28;20097;-66
2021/05/13 02:04:01;;;;;;;7.95;4.82;;;10.00;99.90;;;;;;5096593;28;20055;-66
2021/05/13 02:06:27;;;;;;;7.22;4.72;;;9.90;99.90;;;;;;5096490;28;20036;-66
2021/05/13 02:08:53;;;;;;;13.43;6.15;;;9.80;99.90;;;;;;5096727;28;20038;-66
2021/05/13 02:11:19;;;;;;;9.90;5.60;;;9.70;99.90;;;;;;5096363;28;20039;-66
2021/05/13 02:13:45;;;;;;;8.73;4.68;;;9.80;99.90;;;;;;5096604;28;20032;-66
2021/05/13 02:16:10;;;;;;;9.68;4.72;;;9.80;99.90;;;;;;5096408;28;20024;-66
2021/05/13 02:18:36;;;;;;;9.48;5.10;;;9.90;99.90;;;;;;5094908;28;20047;-66
2021/05/13 02:21:02;;;;;;;11.32;6.70;;;9.90;99.90;;;;;;5094934;28;20108;-66
2021/05/13 02:23:28;;;;;;;9.43;6.10;;;9.80;99.90;;;;;;5094808;28;20028;-66
2021/05/13 02:25:54;;;;;;;8.70;5.25;;;9.80;99.90;;;;;;5095283;28;20028;-66
2021/05/13 02:28:19;;;;;;;8.95;5.55;;;9.80;99.90;;;;;;5095983;28;20544;-66
2021/05/13 02:30:45;;;;;;;8.40;5.88;;;9.70;99.90;;;;;;5096057;28;20061;-66
2021/05/13 02:33:12;;;;;;;9.77;6.15;;;9.70;99.90;;;;;;5096087;28;20050;-66
2021/05/13 02:35:38;;;;;;;10.85;5.28;;;9.50;99.90;;;;;;5096161;28;20032;-66
2021/05/13 02:38:05;;;;;;;10.80;5.47;;;9.50;99.90;;;;;;5095714;28;20032;-67
2021/05/13 02:40:30;;;;;;;13.57;5.72;;;9.40;99.90;;;;;;5096161;28;20028;-66
2021/05/13 02:42:56;;;;;;;12.02;5.90;;;9.50;99.90;;;;;;5096004;28;20034;-66
2021/05/13 02:45:22;;;;;;;9.07;5.20;;;9.50;99.90;;;;;;5094571;28;20038;-66
2021/05/13 02:47:48;;;;;;;14.40;6.32;;;9.40;99.90;;;;;;5095902;28;20421;-66
2021/05/13 02:50:16;;;;;;;7.70;5.45;;;9.30;99.90;;;;;;5095404;28;20051;-67
2021/05/13 02:52:42;;;;;;;9.50;5.35;;;9.00;99.90;;;;;;5095811;28;20032;-66
2021/05/13 02:55:09;;;;;;;9.82;5.00;;;8.90;99.90;;;;;;5095633;28;20020;-67
2021/05/13 02:57:37;;;;;;;12.52;5.18;;;9.00;99.90;;;;;;5095543;28;20081;-66
2021/05/13 03:02:45;;;;;;;10.43;5.07;;;8.80;99.90;;;;;;5095678;28;20028;-66
2021/05/13 03:05:14;;;;;;;7.78;4.70;;;8.80;99.90;;;;;;5095491;28;20480;-67
2021/05/13 03:07:45;;;;;;;11.30;5.30;;;8.70;99.90;;;;;;5094408;28;20028;-67
2021/05/13 03:10:17;;;;;;;9.82;5.53;;;8.70;99.90;;;;;;5094129;28;20043;-66
2021/05/13 03:12:43;;;;;;;8.55;5.50;;;8.50;99.90;;;;;;5095349;28;20032;-66
2021/05/13 03:15:10;;;;;;;8.48;5.38;;;8.50;99.90;;;;;;5095221;28;20090;-66
2021/05/13 03:17:35;;;;;;;13.13;5.78;;;8.70;99.90;;;;;;5094995;28;20565;-66
2021/05/13 03:20:03;;;;;;;8.82;6.13;;;8.70;99.90;;;;;;5095306;28;20036;-66
2021/05/13 03:22:28;;;;;;;10.88;6.07;;;8.70;99.90;;;;;;5094023;28;20060;-67
2021/05/13 03:24:59;;;;;;;8.82;6.05;;;8.70;99.90;;;;;;5095285;28;20469;-66
2021/05/13 03:29:56;;;;;;;13.43;6.10;;;8.70;99.90;;;;;;5095148;28;20113;-66
2021/05/13 03:32:22;;;;;;;8.68;6.13;;;8.80;99.90;;;;;;5094648;28;20035;-66
2021/05/13 03:34:48;;;;;;;7.35;5.25;;;8.90;99.90;;;;;;5094933;28;20039;-66
2021/05/13 03:37:14;;;;;;;12.23;6.07;;;8.90;99.90;;;;;;5094611;28;20031;-66
2021/05/13 03:39:40;;;;;;;8.20;5.28;;;9.00;99.90;;;;;;5094896;28;20081;-66
2021/05/13 03:42:06;;;;;;;10.55;5.75;;;8.90;99.90;;;;;;5094452;28;20039;-66
2021/05/13 03:44:32;;;;;;;8.95;5.85;;;8.80;99.90;;;;;;5094783;28;20074;-66
2021/05/13 03:46:58;;;;;;;12.35;6.70;;;8.60;99.90;;;;;;5094437;28;20068;-67
2021/05/13 03:49:25;;;;;;;12.85;7.22;;;8.70;99.90;;;;;;5094349;28;20040;-66
2021/05/13 03:51:50;;;;;;;13.82;7.47;;;8.80;99.90;;;;;;5094627;28;20380;-66
2021/05/13 03:54:17;;;;;;;12.95;6.75;;;8.90;99.90;;;;;;5093282;28;20039;-66
2021/05/13 03:56:43;;;;;;;15.90;7.82;;;8.80;99.90;;;;;;5094712;28;20028;-66
2021/05/13 03:59:16;;;;;;;12.35;7.05;;;8.90;99.90;;;;;;5094390;28;20081;-66
2021/05/13 04:02:00;;;;;;;10.82;6.80;;;9.00;99.90;;;;;;5094608;28;20555;-66
2021/05/13 04:04:26;;;;;;;14.13;6.88;;;9.00;99.90;;;;;;5094386;28;20368;-66
2021/05/13 04:06:52;;;;;;;11.70;6.78;;;9.00;99.90;;;;;;5094228;28;20043;-66
2021/05/13 04:09:18;;;;;;;12.82;7.70;;;9.00;99.90;;;;;;5094179;28;20456;-66
2021/05/13 04:11:43;;;;;;;12.52;7.10;;;9.00;99.90;;;;;;5076159;28;20036;-66
2021/05/13 04:14:10;;;;;;;10.75;6.30;;;9.10;99.90;;;;;;5092729;28;20126;-66
2021/05/13 04:16:39;;;;;;;16.80;6.90;;;9.00;99.90;;;;;;5094291;28;20412;-65
2021/05/13 04:19:05;;;;;;;12.00;6.15;;;9.00;99.90;;;;;;5093800;28;20040;-66
2021/05/13 04:21:31;;;;;;;8.70;6.00;;;9.00;99.90;;;;;;5094243;28;20043;-66
2021/05/13 04:23:57;;;;;;;10.45;6.00;;;9.00;99.90;;;;;;5093563;28;20169;-66
2021/05/13 04:26:23;;;;;;;11.30;5.93;;;9.00;99.90;;;;;;5093676;28;20103;-65
2021/05/13 04:28:50;;;;;;;9.80;6.22;;;9.10;99.90;;;;;;5094032;28;20107;-66
2021/05/13 04:31:16;;;;;;;10.40;6.03;;;9.30;99.90;;;;;;5093485;28;20070;-65
2021/05/13 04:33:41;;;;;;;7.72;5.68;;;9.30;99.90;;;;;;5093622;28;20590;-64
2021/05/13 04:36:08;;;;;;;11.63;5.82;;;9.30;99.90;;;;;;5093985;28;20036;-64
2021/05/13 04:38:34;;;;;;;11.05;6.00;;;9.40;99.90;;;;;;5093836;28;20032;-64
2021/05/13 04:41:01;;;;;;;16.00;6.07;;;9.40;99.90;;;;;;5093527;28;20105;-64
2021/05/13 04:43:34;;;;;;;12.43;6.60;;;9.50;99.90;;;;;;5093554;28;20089;-65
2021/05/13 04:46:00;;;;;;;9.05;5.82;;;9.60;99.90;;;;;;5093346;28;20393;-65
2021/05/13 04:48:28;;;;;;;9.15;6.13;;;9.50;99.90;;;;;;5093523;28;20057;-65
2021/05/13 04:50:54;;;;;;;8.23;5.65;;;9.60;99.90;;;;;;5093305;28;20593;-66
2021/05/13 04:53:20;;;;;;;10.77;6.22;;;9.60;99.90;;;;;;5090942;28;20044;-66
2021/05/13 04:55:46;;;;;;;10.10;6.03;;;9.50;99.90;;;;;;5092054;28;20459;-67
2021/05/13 04:58:12;;;;;;;10.70;6.15;;;9.50;99.90;;;;;;5093304;28;20097;-67
2021/05/13 05:00:38;;;;;;;11.35;7.13;;;9.40;99.90;;;;;;5093528;28;20031;-66
2021/05/13 05:03:04;;;;;;;11.98;7.03;;;9.40;99.90;;;;;;5093190;28;20511;-67
2021/05/13 05:05:30;;;;;;;10.45;6.80;;;9.40;99.90;;;;;;5092817;28;20032;-67
2021/05/13 05:07:56;;;;;;;10.93;6.75;;;9.40;99.90;;;;;;5093382;28;20035;-67
2021/05/13 05:10:22;;;;;;;10.38;6.72;;;9.60;99.90;;;;;;5093009;28;20036;-67
2021/05/13 05:12:48;;;;;;;11.13;7.13;;;9.70;99.90;;;;;;5093194;28;20032;-68
2021/05/13 05:15:14;;;;;;;8.50;5.80;;;9.80;99.90;;;;;;5092611;28;20028;-67
2021/05/13 05:17:40;;;;;;;10.35;7.22;;;9.80;99.90;;;;;;5092943;28;20036;-63
2021/05/13 05:20:07;;;;;;;12.02;7.45;;;9.70;99.90;;;;;;5093160;28;20067;-67
2021/05/13 05:22:33;;;;;;;12.05;6.90;;;9.60;99.90;;;;;;5092580;28;20059;-65
2021/05/13 05:24:59;;;;;;;13.30;6.97;;;9.60;99.90;;;;;;5092902;28;20119;-67
2021/05/13 05:27:25;;;;;;;9.65;6.88;;;9.50;99.90;;;;;;5092698;28;20113;-67
2021/05/13 05:29:50;;;;;;;9.52;6.60;;;9.50;99.90;;;;;;5092898;28;20089;-66
2021/05/13 05:32:16;;;;;;;9.20;5.97;;;9.50;99.90;;;;;;5092579;28;20093;-67
2021/05/13 05:34:42;;;;;;;11.88;6.82;;;9.50;99.90;;;;;;5092212;28;20036;-66
2021/05/13 05:37:08;;;;;;;9.75;6.20;;;9.50;99.90;;;;;;5092145;28;20081;-67
2021/05/13 05:39:34;;;;;;;12.02;6.07;;;9.60;99.90;;;;;;5091306;28;20035;-67
2021/05/13 05:42:00;;;;;;;8.70;5.88;;;9.70;99.90;;;;;;5092704;28;20031;-66
2021/05/13 05:44:26;;;;;;;9.65;6.45;;;9.60;99.90;;;;;;5092536;28;20051;-66
2021/05/13 05:46:51;;;;;;;8.82;6.03;;;9.60;99.90;;;;;;5091440;28;20036;-66
2021/05/13 05:49:19;;;;;;;9.18;5.65;;;9.60;99.90;;;;;;5092492;28;20028;-66
2021/05/13 05:51:45;;;;;;;11.73;6.03;;;9.70;99.90;;;;;;5092343;28;20034;-66
2021/05/13 05:54:11;;;;;;;10.98;5.95;;;9.70;99.90;;;;;;5092493;28;20062;-66
2021/05/13 05:56:36;;;;;;;8.80;5.80;;;9.80;99.90;;;;;;5092419;28;20028;-67
2021/05/13 05:59:04;;;;;;;10.60;5.88;;;9.90;99.90;;;;;;5092417;28;20051;-66
2021/05/13 06:01:29;;;;;;;9.05;5.63;;;10.00;99.90;;;;;;5092336;28;20042;-66
2021/05/13 06:03:55;;;;;;;9.95;5.80;;;10.10;99.90;;;;;;5092485;28;20107;-66
2021/05/13 06:06:21;;;;;;;7.43;5.07;;;10.10;99.90;;;;;;5091993;28;20035;-66
2021/05/13 06:08:47;;;;;;;10.57;5.82;;;10.20;99.90;;;;;;5092441;28;20138;-66
2021/05/13 06:11:14;;;;;;;8.35;5.53;;;10.20;99.90;;;;;;5092077;28;20031;-66
2021/05/13 06:13:40;;;;;;;7.75;5.20;;;10.20;99.90;;;;;;5092139;28;20473;-66
2021/05/13 06:16:06;;;;;;;8.63;5.45;;;10.20;99.90;;;;;;5092464;28;20020;-66
2021/05/13 06:18:31;;;;;;;6.90;4.93;;;10.10;99.90;;;;;;5091879;28;20044;-65
2021/05/13 06:20:57;;;;;;;10.32;5.22;;;10.10;99.90;;;;;;5092209;28;20032;-66
2021/05/13 06:23:23;;;;;;;8.48;4.95;;;10.20;99.90;;;;;;5092146;28;20392;-66
2021/05/13 06:25:51;;;;;;;7.53;6.13;;;10.10;99.90;;;;;;5092355;28;20468;-65
2021/05/13 06:28:20;;;;;;;8.15;6.00;;;10.20;99.90;;;;;;5090356;28;20040;-65
2021/05/13 06:30:46;;;;;;;11.45;7.88;;;10.30;99.90;;;;;;5092233;28;20055;-65
2021/05/13 06:33:12;;;;;;;14.85;8.23;;;10.40;99.90;;;;;;5091799;28;20511;-65
2021/05/13 06:35:38;;;;;;;12.20;8.13;;;10.30;99.90;;;;;;5091569;28;20115;-67
2021/05/13 06:38:03;;;;;;;14.57;9.18;;;10.20;99.90;;;;;;5091926;28;20032;-66
2021/05/13 06:40:29;;;;;;;12.85;7.72;;;10.10;99.90;;;;;;5091600;28;20024;-65
2021/05/13 06:42:55;;;;;;;11.48;8.52;;;10.20;99.90;;;;;;5091971;28;20020;-66
2021/05/13 06:45:21;;;;;;;11.85;7.50;;;10.30;99.90;;;;;;5091806;28;20036;-73
2021/05/13 06:47:47;;;;;;;14.95;7.82;;;10.50;99.90;;;;;;5093748;28;20076;-66
2021/05/13 06:50:13;;;;;;;10.45;7.65;;;10.60;99.90;;;;;;5095477;28;20050;-66
2021/05/13 06:52:39;;;;;;;10.25;7.90;;;10.70;99.90;;;;;;5095131;28;20454;-66
2021/05/13 06:55:06;;;;;;;12.23;6.47;;;10.80;99.90;;;;;;5095652;28;20115;-66
2021/05/13 06:57:32;;;;;;;15.10;7.55;;;11.00;99.90;;;;;;5095532;28;20119;-66
2021/05/13 06:59:58;;;;;;;10.00;5.63;;;11.20;99.90;;;;;;5066036;27;20134;-63
2021/05/13 07:02:25;;;;;;;9.90;5.43;;;11.20;99.90;;;;;;5095053;28;20024;-65
2021/05/13 07:04:52;;;;;;;9.35;5.80;;;11.40;99.90;;;;;;5095491;28;20028;-66
2021/05/13 07:07:20;;;;;;;10.82;5.88;;;11.70;99.90;;;;;;5095127;28;20062;-66
2021/05/13 07:09:46;;;;;;;9.77;5.30;;;11.70;99.90;;;;;;5095462;28;20032;-66
2021/05/13 07:12:13;;;;;;;10.13;4.95;;;11.90;99.90;;;;;;5095368;28;20385;-66
2021/05/13 07:14:39;;;;;;;10.40;5.10;;;11.90;99.90;;;;;;5095261;28;20118;-67
2021/05/13 07:17:05;;;;;;;8.50;4.47;;;12.10;99.90;;;;;;5095340;28;20032;-66
2021/05/13 07:19:30;;;;;;;8.10;5.07;;;12.20;99.90;;;;;;5094570;28;20047;-66
2021/05/13 07:21:56;;;;;;;10.90;4.80;;;12.30;99.90;;;;;;5094718;28;20050;-66
2021/05/13 07:24:22;;;;;;;11.65;4.95;;;12.40;99.90;;;;;;5094759;28;20127;-65
2021/05/13 07:26:48;;;;;;;8.57;4.85;;;12.40;99.90;;;;;;5095051;28;20032;-65
2021/05/13 07:29:14;;;;;;;7.95;5.05;;;12.50;99.90;;;;;;5094891;28;20103;-65
2021/05/13 07:31:40;;;;;;;7.72;4.95;;;12.60;99.90;;;;;;5094790;28;20032;-65
2021/05/13 07:34:06;;;;;;;12.02;5.78;;;12.70;99.90;;;;;;5094967;28;20109;-66
2021/05/13 07:36:31;;;;;;;15.77;5.80;;;12.90;99.90;;;;;;5094435;28;20495;-65
2021/05/13 07:38:57;;;;;;;9.57;5.15;;;13.00;99.90;;;;;;5094857;28;20028;-67
2021/05/13 07:41:23;;;;;;;9.13;5.68;;;13.00;99.90;;;;;;5094697;28;20024;-65
2021/05/13 07:43:51;;;;;;;9.63;5.25;;;13.00;99.90;;;;;;5094556;28;20032;-65
2021/05/13 07:46:20;;;;;;;24.63;12.02;;;13.20;99.90;;;;;;5094670;28;20468;-65
2021/05/13 07:48:48;;;;;;;9.35;6.00;;;13.30;99.90;;;;;;5094617;28;20529;-64
2021/05/13 07:51:15;;;;;;;7.93;5.10;;;13.40;99.90;;;;;;5076720;28;20421;-65
2021/05/13 07:53:41;;;;;;;8.68;5.00;;;13.50;99.90;;;;;;5094342;28;20039;-65
2021/05/13 07:56:07;;;;;;;7.80;4.90;;;13.80;99.90;;;;;;5094130;28;20427;-65
2021/05/13 07:58:33;;;;;;;8.27;4.45;;;13.80;99.90;;;;;;5093420;28;20031;-65
2021/05/13 08:00:58;;;;;;;12.95;4.22;;;13.80;99.90;;;;;;5094444;28;20361;-65
2021/05/13 08:03:24;;;;;;;8.80;3.97;;;14.00;99.90;;;;;;5094200;28;20056;-65
2021/05/13 08:05:50;;;;;;;8.25;3.70;;;14.00;99.90;;;;;;5094468;28;20093;-65
2021/05/13 08:08:15;;;;;;;12.85;3.75;;;14.20;99.90;;;;;;5094210;28;20103;-64
2021/05/13 08:10:41;;;;;;;6.43;3.58;;;14.40;99.90;;;;;;5093752;28;20766;-65
2021/05/13 08:13:07;;;;;;;10.00;3.53;;;14.40;99.90;;;;;;5093832;28;20032;-66
2021/05/13 08:15:33;;;;;;;7.40;3.75;;;14.50;99.90;;;;;;5093870;28;20020;-66
2021/05/13 08:17:58;;;;;;;9.32;4.47;;;14.40;99.90;;;;;;5093855;28;20095;-66
2021/05/13 08:20:24;;;;;;;8.70;3.53;;;14.40;99.90;;;;;;5093692;28;20055;-64
2021/05/13 08:22:50;;;;;;;10.32;3.83;;;14.50;99.90;;;;;;5092419;28;20069;-64
2021/05/13 08:25:19;;;;;;;10.07;3.60;;;14.70;99.90;;;;;;5093861;28;20126;-66
2021/05/13 08:27:47;;;;;;;12.25;4.32;;;14.70;99.90;;;;;;5091401;27;20024;-67
2021/05/13 08:30:15;;;;;;;6.95;3.28;;;14.80;99.90;;;;;;5073993;28;20036;-66
2021/05/13 08:32:42;;;;;;;8.88;3.63;;;14.90;99.90;;;;;;5073208;28;20038;-67
2021/05/13 08:35:08;;;;;;;8.85;3.47;;;15.00;99.90;;;;;;5076253;28;20513;-66
2021/05/13 08:37:34;;;;;;;6.85;2.97;;;15.20;99.90;;;;;;5093569;28;20490;-66
2021/05/13 08:40:01;;;;;;;5.10;2.47;;;15.30;99.90;;;;;;5093603;28;20032;-65
2021/05/13 08:42:27;;;;;;;5.68;2.72;;;15.40;99.90;;;;;;5093366;28;20032;-64
2021/05/13 08:44:54;;;;;;;6.80;2.60;;;15.50;99.90;;;;;;5093360;28;20517;-65
2021/05/13 08:47:19;;;;;;;9.52;2.95;;;15.50;99.90;;;;;;5092346;28;20032;-65
2021/05/13 08:49:45;;;;;;;4.50;2.40;;;15.50;99.90;;;;;;5093016;28;20016;-65
2021/05/13 08:52:16;;;;;;;9.60;3.00;;;15.60;99.90;;;;;;5093053;28;20434;-64
2021/05/13 08:54:57;;;;;;;7.75;2.70;;;15.50;99.90;;;;;;5093150;28;20032;-65
2021/05/13 08:57:24;;;;;;;5.88;2.67;;;15.60;99.90;;;;;;5093298;28;20047;-65
2021/05/13 08:59:51;;;;;;;6.75;2.70;;;15.90;99.90;;;;;;5086172;28;20063;-64
2021/05/13 09:02:18;;;;;;;4.55;2.47;;;15.90;99.90;;;;;;5072623;28;20040;-65
2021/05/13 09:04:53;;;;;;;4.53;2.30;;;15.90;99.90;;;;;;5072678;28;20025;-65
2021/05/13 09:07:23;;;;;;;7.88;3.08;;;16.10;99.90;;;;;;5072588;28;20520;-65
2021/05/13 09:10:10;;;;;;;4.32;2.28;;;16.20;99.90;;;;;;5072357;28;20036;-65
2021/05/13 09:12:44;;;;;;;6.00;2.05;;;16.30;99.90;;;;;;5072539;28;20067;-66
2021/05/13 09:15:22;;;;;;;5.82;1.77;;;16.50;99.90;;;;;;5072680;28;20488;-65
2021/05/13 09:17:57;;;;;;;4.53;2.10;;;16.60;99.90;;;;;;5072368;28;20534;-67
2021/05/13 09:20:28;;;;;;;7.70;2.95;;;16.60;99.90;;;;;;5072260;28;20032;-66
2021/05/13 09:23:14;;;;;;;10.15;2.20;;;16.60;99.90;;;;;;5072516;28;20495;-74
2021/05/13 09:25:44;;;;;;;3.70;2.10;;;16.70;99.90;;;;;;5072397;28;20501;-64
2021/05/13 09:28:10;;;;;;;5.25;1.77;;;17.00;99.90;;;;;;5071454;28;20040;-70
2021/05/13 09:30:36;;;;;;;9.25;2.50;;;17.10;99.90;;;;;;5085816;28;20020;-69
2021/05/13 09:33:08;;;;;;;4.13;1.98;;;17.30;99.90;;;;;;5092522;28;20036;-73
2021/05/13 09:35:37;;;;;;;6.25;1.73;;;17.40;99.90;;;;;;5092609;28;20043;-67
2021/05/13 09:38:08;;;;;;;5.25;1.40;;;17.30;99.90;;;;;;5092758;28;20036;-66
2021/05/13 09:41:01;;;;;;;5.28;1.63;;;17.50;99.90;;;;;;5092586;28;20032;-66
2021/05/13 09:43:34;;;;;;;5.55;1.42;;;17.40;99.80;;;;;;5090432;28;20044;-66
2021/05/13 09:46:05;;;;;;;3.63;1.58;;;17.40;99.90;;;;;;5073256;28;20035;-65
2021/05/13 09:48:45;;;;;;;6.60;1.48;;;17.50;98.80;;;;;;5106752;28;20071;-66
2021/05/13 09:51:35;;;;;;;6.88;1.40;;;17.70;99.00;;;;;;5092435;28;20093;-65
2021/05/13 09:54:20;;;;;;;3.70;1.30;;;17.80;99.40;;;;;;5092385;28;20035;-66
2021/05/13 09:56:50;;;;;;;4.72;1.65;;;17.80;97.10;;;;;;5092327;28;20029;-65
2021/05/13 09:59:35;;;;;;;4.20;1.50;;;18.00;99.40;;;;;;5089965;28;20032;-65
2021/05/13 10:02:06;;;;;;;7.10;1.60;;;18.00;99.40;;;;;;5072194;28;20438;-65
2021/05/13 10:04:32;;;;;;;2.83;1.05;;;18.20;98.00;;;;;;5072044;28;20036;-66
2021/05/13 10:07:00;;;;;;;6.40;2.22;;;18.30;96.70;;;;;;5072122;28;20039;-66
2021/05/13 10:09:26;;;;;;;8.15;1.90;;;18.70;98.10;;;;;;5072182;28;20396;-65
2021/05/13 10:11:55;;;;;;;7.63;1.60;;;18.90;96.80;;;;;;5070696;28;20044;-65
2021/05/13 10:14:23;;;;;;;6.13;1.60;;;19.00;96.70;;;;;;5072040;28;20040;-65
2021/05/13 10:16:54;;;;;;;2.30;1.10;;;18.90;96.80;;;;;;5072069;28;20031;-66
2021/05/13 10:19:42;;;;;;;3.22;1.20;;;18.90;96.00;;;;;;5071699;28;20045;-65
2021/05/13 10:22:13;;;;;;;3.47;1.10;;;19.00;94.00;;;;;;5071789;28;20386;-64
2021/05/13 10:24:40;;;;;;;3.45;1.42;;;19.40;93.70;;;;;;5074786;28;20087;-64
2021/05/13 10:27:36;;;;;;;3.92;1.20;;;19.50;92.60;;;;;;5074708;28;20052;-64
2021/05/13 10:30:03;;;;;;;6.63;1.13;;;19.40;91.90;;;;;;5075783;28;20490;-65
2021/05/13 10:32:32;;;;;;;5.57;1.30;;;19.50;91.80;;;;;;5096043;28;20028;-66
2021/05/13 10:35:08;;;;;;;3.55;1.27;;;19.60;92.20;;;;;;5096048;28;20020;-64
2021/05/13 10:37:40;;;;;;;3.65;1.30;;;19.50;91.70;;;;;;5073821;28;20403;-64
2021/05/13 10:40:13;;;;;;;3.80;1.27;;;19.50;92.60;;;;;;5075294;28;20385;-64
2021/05/13 10:42:42;;;;;;;8.43;1.70;;;19.50;92.10;;;;;;5075705;28;20035;-65
2021/05/13 10:45:25;;;;;;;7.45;1.20;;;19.90;91.40;;;;;;5075423;28;20067;-66
2021/05/13 10:48:15;;;;;;;5.50;1.20;;;20.00;91.30;;;;;;5075339;28;20038;-66
2021/05/13 10:51:10;;;;;;;2.60;1.02;;;20.10;90.70;;;;;;5075321;28;20071;-64
2021/05/13 10:56:28;;;;;;;7.82;1.35;;;19.80;88.80;;;;;;5075386;28;20468;-66
2021/05/13 10:59:07;;;;;;;4.78;1.35;;;19.40;90.70;;;;;;5075319;28;20511;-64
2021/05/13 11:01:37;;;;;;;3.05;1.10;;;18.90;91.10;;;;;;5055203;28;20135;-65
2021/05/13 11:04:34;;;;;;;2.35;0.90;;;18.80;92.00;;;;;;5055398;28;20083;-66
2021/05/13 11:07:03;;;;;;;4.75;1.08;;;18.60;93.20;;;;;;5055230;28;20403;-64
2021/05/13 11:09:38;;;;;;;5.45;1.30;;;18.50;94.00;;;;;;5057651;28;20468;-65
2021/05/13 11:12:19;;;;;;;4.80;1.33;;;18.40;94.50;;;;;;5072030;28;20467;-65
2021/05/13 11:14:54;;;;;;;;;;;18.30;94.50;;;;;;5073607;28;20028;-65
2021/05/13 11:20:31;;;;;;;3.92;1.48;;;17.70;99.20;;;;;;5071925;28;20063;-65
2021/05/13 11:23:14;;;;;;;4.35;1.27;;;17.40;99.30;;;;;;5074524;28;20068;-65
2021/05/13 11:25:51;;;;;;;4.55;1.02;;;17.20;99.90;;;;;;5074508;28;20039;-65
2021/05/13 11:28:20;;;;;;;1.90;0.75;;;17.00;99.00;;;;;;5073317;28;20036;-65
2021/05/13 11:30:49;;;;;;;3.50;0.82;;;16.80;98.60;;;;;;5089614;28;20028;-65
2021/05/13 11:33:16;;;;;;;2.70;0.75;;;16.60;97.80;;;;;;5093502;28;20494;-66
2021/05/13 11:35:41;;;;;;;3.22;0.47;;;16.40;96.00;;;;;;5094517;28;20530;-66
2021/05/13 11:38:23;;;;;;;1.33;0.40;;;16.40;95.20;;;;;;5094593;28;20036;-65
2021/05/13 11:40:50;;;;;;;;;;;16.40;94.60;;;;;;5095130;28;20031;-65
2021/05/13 11:43:21;;;;;;;1.27;0.52;;;16.50;93.50;;;;;;5094783;28;19957;-65
2021/05/13 11:45:48;;;;;;;2.00;0.50;;;16.50;94.40;;;;;;5094475;28;20032;-65
2021/05/13 11:48:30;;;;;;;3.08;0.95;;;16.70;94.20;;;;;;5094777;28;20040;-65
2021/05/13 11:51:02;;;;;;;1.52;0.60;;;16.90;93.30;;;;;;5094407;28;20082;-65
2021/05/13 11:53:28;;;;;;;3.80;0.95;;;16.90;93.40;;;;;;5094578;28;20101;-65
2021/05/13 11:55:55;;;;;;;2.65;0.85;;;16.90;92.70;;;;;;5094318;28;20035;-66
2021/05/13 11:58:41;;;;;;;1.63;0.63;;;17.00;92.40;;;;;;5092896;28;20047;-65
2021/05/13 12:01:31;;;;;;;3.80;0.63;;;17.30;92.90;;;;;;5076546;28;20107;-65
2021/05/13 12:04:09;;;;;;;2.83;0.45;;;17.60;92.10;;;;;;5073964;28;20040;-65
2021/05/13 12:06:47;;;;;;;1.73;0.40;;;17.70;91.30;;;;;;5073894;28;20107;-65
2021/05/13 12:09:15;;;;;;;0.90;0.20;;;18.00;91.70;;;;;;5073962;28;20064;-66
2021/05/13 12:11:42;;;;;;;0.85;0.40;;;18.30;87.40;;;;;;5073719;28;20039;-65
2021/05/13 12:14:28;;;;;;;0.88;0.40;;;18.20;84.30;;;;;;5072686;28;20029;-66
2021/05/13 12:17:06;;;;;;;2.03;0.47;;;18.20;87.30;;;;;;5073719;28;20021;-66
2021/05/13 12:19:34;;;;;;;1.00;0.40;;;18.50;86.20;;;;;;5073448;28;20102;-65
2021/05/13 12:22:03;;;;;;;2.35;0.40;;;18.50;90.40;;;;;;5073761;28;20033;-65
2021/05/13 12:24:35;;;;;;;2.20;1.05;;;19.10;87.80;;;;;;5072431;28;20032;-64
2021/05/13 12:27:01;;;;;;;2.85;0.52;;;19.20;90.10;;;;;;5073329;28;20043;-64
2021/05/13 12:29:27;;;;;;;0.77;0.25;;;19.10;88.70;;;;;;5077411;28;20016;-64
2021/05/13 12:31:53;;;;;;;4.07;0.50;;;18.80;88.30;;;;;;5092346;28;20032;-64
2021/05/13 12:34:37;;;;;;;1.38;0.60;;;18.70;89.30;;;;;;5093721;28;20111;-65
2021/05/13 12:37:05;;;;;;;1.90;0.50;;;18.30;88.00;;;;;;5092242;28;20028;-65
2021/05/13 12:39:34;;;;;;;1.50;0.57;;;18.20;87.30;;;;;;5093239;28;20024;-65
2021/05/13 12:42:00;;;;;;;1.00;0.50;;;18.00;89.00;;;;;;5093442;28;20472;-65
2021/05/13 12:44:35;;;;;;;2.63;0.55;;;17.80;89.30;;;;;;5073857;28;20051;-65
2021/05/13 12:47:04;;;;;;;2.10;0.57;;;17.60;89.60;;;;;;5089945;28;20043;-65
2021/05/13 12:49:31;;;;;;;3.53;0.70;;;17.50;90.70;;;;;;5093447;28;20032;-65
2021/05/13 12:52:12;;;;;;;1.23;0.47;;;17.50;91.60;;;;;;5092933;28;20085;-65
2021/05/13 12:54:41;;;;;;;1.90;0.73;;;17.50;89.80;;;;;;5092234;28;20115;-65
2021/05/13 12:57:18;;;;;;;3.65;0.88;;;17.30;90.20;;;;;;5093309;28;20472;-65
2021/05/13 12:59:57;;;;;;;1.58;0.60;;;17.30;90.70;;;;;;5086658;28;20028;-65
2021/05/13 13:02:26;;;;;;;3.45;1.08;;;17.50;90.50;;;;;;5072902;28;20036;-70
2021/05/13 13:04:55;;;;;;;1.70;0.70;;;17.40;90.60;;;;;;5072687;28;20020;-63
2021/05/13 13:07:43;;;;;;;1.38;0.52;;;17.40;91.90;;;;;;5072878;28;20055;-69